sensor_id;sensor_type;location;lat;lon;timestamp;temperature;humidity
66019;HTU21D;52787;51.084;5.816;2022-07-23T00:00:20;21.05;76.44
66019;HTU21D;52787;51.084;5.816;2022-07-23T00:02:46;21.06;77.00
66019;HTU21D;52787;51.084;5.816;2022-07-23T00:05:12;21.05;76.10
66019;HTU21D;52787;51.084;5.816;2022-07-23T00:07:38;20.99;76.09
66019;HTU21D;52787;51.084;5.816;2022-07-23T00:10:04;20.95;76.53
66019;HTU21D;52787;51.084;5.816;2022-07-23T00:12:30;20.95;75.67
66019;HTU21D;52787;51.084;5.816;2022-07-23T00:14:56;20.85;75.38
66019;HTU21D;52787;51.084;5.816;2022-07-23T00:17:22;20.75;75.63
66019;HTU21D;52787;51.084;5.816;2022-07-23T00:19:47;20.72;75.51
66019;HTU21D;52787;51.084;5.816;2022-07-23T00:22:13;20.73;75.50
66019;HTU21D;52787;51.084;5.816;2022-07-23T00:24:39;20.76;75.22
66019;HTU21D;52787;51.084;5.816;2022-07-23T00:27:05;20.73;75.51
66019;HTU21D;52787;51.084;5.816;2022-07-23T00:29:30;20.68;75.47
66019;HTU21D;52787;51.084;5.816;2022-07-23T00:31:56;20.62;75.39
66019;HTU21D;52787;51.084;5.816;2022-07-23T00:34:22;20.58;75.45
66019;HTU21D;52787;51.084;5.816;2022-07-23T00:36:47;20.51;75.47
66019;HTU21D;52787;51.084;5.816;2022-07-23T00:39:13;20.45;75.67
66019;HTU21D;52787;51.084;5.816;2022-07-23T00:41:39;20.43;75.88
66019;HTU21D;52787;51.084;5.816;2022-07-23T00:44:15;20.41;75.99
66019;HTU21D;52787;51.084;5.816;2022-07-23T00:46:52;20.42;76.06
66019;HTU21D;52787;51.084;5.816;2022-07-23T00:49:28;20.42;75.99
66019;HTU21D;52787;51.084;5.816;2022-07-23T00:51:56;20.39;75.83
66019;HTU21D;52787;51.084;5.816;2022-07-23T00:54:25;20.37;75.99
66019;HTU21D;52787;51.084;5.816;2022-07-23T00:56:51;20.33;75.84
66019;HTU21D;52787;51.084;5.816;2022-07-23T00:59:17;20.34;75.66
66019;HTU21D;52787;51.084;5.816;2022-07-23T01:01:43;20.30;75.56
66019;HTU21D;52787;51.084;5.816;2022-07-23T01:04:10;20.25;75.95
66019;HTU21D;52787;51.084;5.816;2022-07-23T01:06:38;20.22;75.85
66019;HTU21D;52787;51.084;5.816;2022-07-23T01:09:06;20.21;75.94
66019;HTU21D;52787;51.084;5.816;2022-07-23T01:11:36;20.19;76.13
66019;HTU21D;52787;51.084;5.816;2022-07-23T01:16:44;20.13;75.83
66019;HTU21D;52787;51.084;5.816;2022-07-23T01:19:12;20.10;75.75
66019;HTU21D;52787;51.084;5.816;2022-07-23T01:21:44;20.04;75.83
66019;HTU21D;52787;51.084;5.816;2022-07-23T01:24:13;20.04;76.01
66019;HTU21D;52787;51.084;5.816;2022-07-23T01:26:43;20.01;76.07
66019;HTU21D;52787;51.084;5.816;2022-07-23T01:29:10;19.99;76.09
66019;HTU21D;52787;51.084;5.816;2022-07-23T01:31:36;19.97;76.24
66019;HTU21D;52787;51.084;5.816;2022-07-23T01:34:02;19.99;76.28
66019;HTU21D;52787;51.084;5.816;2022-07-23T01:36:29;20.02;75.87
66019;HTU21D;52787;51.084;5.816;2022-07-23T01:38:55;20.01;75.79
66019;HTU21D;52787;51.084;5.816;2022-07-23T01:41:21;19.98;76.01
66019;HTU21D;52787;51.084;5.816;2022-07-23T01:43:47;19.99;76.03
66019;HTU21D;52787;51.084;5.816;2022-07-23T01:46:13;19.95;75.89
66019;HTU21D;52787;51.084;5.816;2022-07-23T01:48:39;19.94;75.79
66019;HTU21D;52787;51.084;5.816;2022-07-23T01:51:06;19.89;75.70
66019;HTU21D;52787;51.084;5.816;2022-07-23T01:53:33;19.83;75.56
66019;HTU21D;52787;51.084;5.816;2022-07-23T01:56:00;19.76;75.73
66019;HTU21D;52787;51.084;5.816;2022-07-23T01:58:27;19.76;75.92
66019;HTU21D;52787;51.084;5.816;2022-07-23T02:00:53;19.74;76.17
66019;HTU21D;52787;51.084;5.816;2022-07-23T02:03:20;19.72;76.20
66019;HTU21D;52787;51.084;5.816;2022-07-23T02:05:46;19.73;76.10
66019;HTU21D;52787;51.084;5.816;2022-07-23T02:08:12;19.71;75.98
66019;HTU21D;52787;51.084;5.816;2022-07-23T02:10:38;19.68;76.10
66019;HTU21D;52787;51.084;5.816;2022-07-23T02:13:04;19.62;76.03
66019;HTU21D;52787;51.084;5.816;2022-07-23T02:15:30;19.53;76.06
66019;HTU21D;52787;51.084;5.816;2022-07-23T02:17:56;19.48;76.44
66019;HTU21D;52787;51.084;5.816;2022-07-23T02:20:22;19.46;76.56
66019;HTU21D;52787;51.084;5.816;2022-07-23T02:22:48;19.45;76.57
66019;HTU21D;52787;51.084;5.816;2022-07-23T02:25:14;19.50;76.47
66019;HTU21D;52787;51.084;5.816;2022-07-23T02:27:40;19.52;76.50
66019;HTU21D;52787;51.084;5.816;2022-07-23T02:30:07;19.52;76.41
66019;HTU21D;52787;51.084;5.816;2022-07-23T02:32:33;19.51;76.41
66019;HTU21D;52787;51.084;5.816;2022-07-23T02:35:00;19.47;76.12
66019;HTU21D;52787;51.084;5.816;2022-07-23T02:37:27;19.43;76.20
66019;HTU21D;52787;51.084;5.816;2022-07-23T02:39:53;19.39;76.41
66019;HTU21D;52787;51.084;5.816;2022-07-23T02:42:19;19.37;76.61
66019;HTU21D;52787;51.084;5.816;2022-07-23T02:44:45;19.35;76.53
66019;HTU21D;52787;51.084;5.816;2022-07-23T02:47:11;19.29;76.51
66019;HTU21D;52787;51.084;5.816;2022-07-23T02:49:36;19.27;76.69
66019;HTU21D;52787;51.084;5.816;2022-07-23T02:52:02;19.24;76.70
66019;HTU21D;52787;51.084;5.816;2022-07-23T02:54:28;19.23;76.86
66019;HTU21D;52787;51.084;5.816;2022-07-23T02:56:54;19.26;76.88
66019;HTU21D;52787;51.084;5.816;2022-07-23T02:59:20;19.27;76.63
66019;HTU21D;52787;51.084;5.816;2022-07-23T03:01:45;19.25;76.67
66019;HTU21D;52787;51.084;5.816;2022-07-23T03:04:12;19.24;76.60
66019;HTU21D;52787;51.084;5.816;2022-07-23T03:06:38;19.20;76.54
66019;HTU21D;52787;51.084;5.816;2022-07-23T03:09:04;19.12;76.49
66019;HTU21D;52787;51.084;5.816;2022-07-23T03:11:30;19.07;76.65
66019;HTU21D;52787;51.084;5.816;2022-07-23T03:13:56;18.99;77.02
66019;HTU21D;52787;51.084;5.816;2022-07-23T03:16:22;18.94;77.29
66019;HTU21D;52787;51.084;5.816;2022-07-23T03:18:48;18.93;77.40
66019;HTU21D;52787;51.084;5.816;2022-07-23T03:21:13;18.94;77.34
66019;HTU21D;52787;51.084;5.816;2022-07-23T03:23:40;18.94;77.63
66019;HTU21D;52787;51.084;5.816;2022-07-23T03:26:06;18.94;77.85
66019;HTU21D;52787;51.084;5.816;2022-07-23T03:28:32;18.95;77.79
66019;HTU21D;52787;51.084;5.816;2022-07-23T03:30:58;18.95;77.63
66019;HTU21D;52787;51.084;5.816;2022-07-23T03:33:23;18.97;77.46
66019;HTU21D;52787;51.084;5.816;2022-07-23T03:35:50;18.97;77.26
66019;HTU21D;52787;51.084;5.816;2022-07-23T03:38:16;18.93;77.02
66019;HTU21D;52787;51.084;5.816;2022-07-23T03:40:41;18.87;77.01
66019;HTU21D;52787;51.084;5.816;2022-07-23T03:43:07;18.83;77.29
66019;HTU21D;52787;51.084;5.816;2022-07-23T03:45:33;18.88;77.31
66019;HTU21D;52787;51.084;5.816;2022-07-23T03:47:59;18.89;77.18
66019;HTU21D;52787;51.084;5.816;2022-07-23T03:50:25;18.87;76.99
66019;HTU21D;52787;51.084;5.816;2022-07-23T03:52:51;18.84;77.11
66019;HTU21D;52787;51.084;5.816;2022-07-23T03:55:17;18.79;77.11
66019;HTU21D;52787;51.084;5.816;2022-07-23T03:57:43;18.77;77.39
66019;HTU21D;52787;51.084;5.816;2022-07-23T04:00:11;18.76;77.32
66019;HTU21D;52787;51.084;5.816;2022-07-23T04:02:38;18.74;77.19
66019;HTU21D;52787;51.084;5.816;2022-07-23T04:05:04;18.71;77.08
66019;HTU21D;52787;51.084;5.816;2022-07-23T04:07:31;18.68;76.89
66019;HTU21D;52787;51.084;5.816;2022-07-23T04:09:57;18.61;77.08
66019;HTU21D;52787;51.084;5.816;2022-07-23T04:12:23;18.59;77.15
66019;HTU21D;52787;51.084;5.816;2022-07-23T04:14:49;18.59;77.22
66019;HTU21D;52787;51.084;5.816;2022-07-23T04:17:15;18.56;77.18
66019;HTU21D;52787;51.084;5.816;2022-07-23T04:19:41;18.56;77.16
66019;HTU21D;52787;51.084;5.816;2022-07-23T04:22:10;18.57;77.14
66019;HTU21D;52787;51.084;5.816;2022-07-23T04:24:37;18.57;77.12
66019;HTU21D;52787;51.084;5.816;2022-07-23T04:27:03;18.56;77.08
66019;HTU21D;52787;51.084;5.816;2022-07-23T04:29:30;18.57;76.95
66019;HTU21D;52787;51.084;5.816;2022-07-23T04:31:55;18.54;77.12
66019;HTU21D;52787;51.084;5.816;2022-07-23T04:34:21;18.50;77.22
66019;HTU21D;52787;51.084;5.816;2022-07-23T04:36:47;18.44;77.42
66019;HTU21D;52787;51.084;5.816;2022-07-23T04:39:13;18.44;77.53
66019;HTU21D;52787;51.084;5.816;2022-07-23T04:41:39;18.43;77.79
66019;HTU21D;52787;51.084;5.816;2022-07-23T04:44:05;18.47;77.71
66019;HTU21D;52787;51.084;5.816;2022-07-23T04:46:31;18.50;77.65
66019;HTU21D;52787;51.084;5.816;2022-07-23T04:48:58;18.52;77.38
66019;HTU21D;52787;51.084;5.816;2022-07-23T04:51:24;18.51;77.53
66019;HTU21D;52787;51.084;5.816;2022-07-23T04:53:50;18.55;77.57
66019;HTU21D;52787;51.084;5.816;2022-07-23T04:56:16;18.59;77.47
66019;HTU21D;52787;51.084;5.816;2022-07-23T04:58:42;18.66;77.09
66019;HTU21D;52787;51.084;5.816;2022-07-23T05:01:07;18.69;76.82
66019;HTU21D;52787;51.084;5.816;2022-07-23T05:03:34;18.69;76.75
66019;HTU21D;52787;51.084;5.816;2022-07-23T05:05:59;18.69;76.81
66019;HTU21D;52787;51.084;5.816;2022-07-23T05:08:26;18.68;76.84
66019;HTU21D;52787;51.084;5.816;2022-07-23T05:10:51;18.69;76.78
66019;HTU21D;52787;51.084;5.816;2022-07-23T05:13:18;18.71;76.77
66019;HTU21D;52787;51.084;5.816;2022-07-23T05:15:45;18.71;76.85
66019;HTU21D;52787;51.084;5.816;2022-07-23T05:18:11;18.71;77.02
66019;HTU21D;52787;51.084;5.816;2022-07-23T05:20:37;18.76;76.83
66019;HTU21D;52787;51.084;5.816;2022-07-23T05:23:03;18.81;76.64
66019;HTU21D;52787;51.084;5.816;2022-07-23T05:25:29;18.80;76.76
66019;HTU21D;52787;51.084;5.816;2022-07-23T05:27:55;18.81;76.75
66019;HTU21D;52787;51.084;5.816;2022-07-23T05:30:21;18.83;76.76
66019;HTU21D;52787;51.084;5.816;2022-07-23T05:32:47;18.82;77.01
66019;HTU21D;52787;51.084;5.816;2022-07-23T05:35:12;18.88;76.98
66019;HTU21D;52787;51.084;5.816;2022-07-23T05:37:38;18.93;76.88
66019;HTU21D;52787;51.084;5.816;2022-07-23T05:40:06;18.98;76.76
66019;HTU21D;52787;51.084;5.816;2022-07-23T05:42:34;19.03;76.46
66019;HTU21D;52787;51.084;5.816;2022-07-23T05:45:04;19.07;76.48
66019;HTU21D;52787;51.084;5.816;2022-07-23T05:47:45;19.10;76.58
66019;HTU21D;52787;51.084;5.816;2022-07-23T05:50:13;19.14;76.44
66019;HTU21D;52787;51.084;5.816;2022-07-23T05:52:40;19.16;76.55
66019;HTU21D;52787;51.084;5.816;2022-07-23T05:55:09;19.14;76.72
66019;HTU21D;52787;51.084;5.816;2022-07-23T05:57:35;19.12;77.15
66019;HTU21D;52787;51.084;5.816;2022-07-23T06:00:04;19.11;77.19
66019;HTU21D;52787;51.084;5.816;2022-07-23T06:02:31;19.14;77.27
66019;HTU21D;52787;51.084;5.816;2022-07-23T06:04:57;19.17;77.26
66019;HTU21D;52787;51.084;5.816;2022-07-23T06:07:23;19.18;77.44
66019;HTU21D;52787;51.084;5.816;2022-07-23T06:09:48;19.27;77.49
66019;HTU21D;52787;51.084;5.816;2022-07-23T06:12:15;19.30;77.42
66019;HTU21D;52787;51.084;5.816;2022-07-23T06:14:41;19.38;77.28
66019;HTU21D;52787;51.084;5.816;2022-07-23T06:17:07;19.47;77.11
66019;HTU21D;52787;51.084;5.816;2022-07-23T06:19:34;19.59;76.62
66019;HTU21D;52787;51.084;5.816;2022-07-23T06:22:00;19.66;76.29
66019;HTU21D;52787;51.084;5.816;2022-07-23T06:24:25;19.66;76.25
66019;HTU21D;52787;51.084;5.816;2022-07-23T06:26:51;19.68;76.30
66019;HTU21D;52787;51.084;5.816;2022-07-23T06:29:17;19.72;76.05
66019;HTU21D;52787;51.084;5.816;2022-07-23T06:31:43;19.70;76.09
66019;HTU21D;52787;51.084;5.816;2022-07-23T06:34:08;19.68;75.76
66019;HTU21D;52787;51.084;5.816;2022-07-23T06:36:34;19.67;75.93
66019;HTU21D;52787;51.084;5.816;2022-07-23T06:39:00;19.72;75.91
66019;HTU21D;52787;51.084;5.816;2022-07-23T06:41:26;19.77;75.70
66019;HTU21D;52787;51.084;5.816;2022-07-23T06:43:51;19.81;75.86
66019;HTU21D;52787;51.084;5.816;2022-07-23T06:46:17;19.88;75.73
66019;HTU21D;52787;51.084;5.816;2022-07-23T06:48:43;19.97;75.72
66019;HTU21D;52787;51.084;5.816;2022-07-23T06:51:09;20.05;75.04
66019;HTU21D;52787;51.084;5.816;2022-07-23T06:53:34;20.12;74.75
66019;HTU21D;52787;51.084;5.816;2022-07-23T06:56:00;20.21;74.71
66019;HTU21D;52787;51.084;5.816;2022-07-23T06:58:26;20.30;74.34
66019;HTU21D;52787;51.084;5.816;2022-07-23T07:00:51;20.36;73.75
66019;HTU21D;52787;51.084;5.816;2022-07-23T07:03:18;20.46;73.59
66019;HTU21D;52787;51.084;5.816;2022-07-23T07:05:44;20.48;73.78
66019;HTU21D;52787;51.084;5.816;2022-07-23T07:08:10;20.53;73.69
66019;HTU21D;52787;51.084;5.816;2022-07-23T07:10:35;20.55;73.17
66019;HTU21D;52787;51.084;5.816;2022-07-23T07:13:01;20.56;73.28
66019;HTU21D;52787;51.084;5.816;2022-07-23T07:15:27;20.55;73.45
66019;HTU21D;52787;51.084;5.816;2022-07-23T07:17:53;20.62;73.73
66019;HTU21D;52787;51.084;5.816;2022-07-23T07:20:19;20.68;73.51
66019;HTU21D;52787;51.084;5.816;2022-07-23T07:22:45;20.71;72.74
66019;HTU21D;52787;51.084;5.816;2022-07-23T07:25:11;20.73;71.99
66019;HTU21D;52787;51.084;5.816;2022-07-23T07:27:36;20.76;71.49
66019;HTU21D;52787;51.084;5.816;2022-07-23T07:30:04;20.76;71.06
66019;HTU21D;52787;51.084;5.816;2022-07-23T07:32:31;20.80;71.45
66019;HTU21D;52787;51.084;5.816;2022-07-23T07:35:03;20.85;71.06
66019;HTU21D;52787;51.084;5.816;2022-07-23T07:37:29;20.84;70.97
66019;HTU21D;52787;51.084;5.816;2022-07-23T07:39:55;20.88;70.86
66019;HTU21D;52787;51.084;5.816;2022-07-23T07:42:21;20.95;70.71
66019;HTU21D;52787;51.084;5.816;2022-07-23T07:44:47;21.03;70.07
66019;HTU21D;52787;51.084;5.816;2022-07-23T07:47:13;21.08;69.70
66019;HTU21D;52787;51.084;5.816;2022-07-23T07:49:41;21.15;69.42
66019;HTU21D;52787;51.084;5.816;2022-07-23T07:52:08;21.24;69.80
66019;HTU21D;52787;51.084;5.816;2022-07-23T07:54:34;21.25;68.70
66019;HTU21D;52787;51.084;5.816;2022-07-23T07:56:59;21.28;69.43
66019;HTU21D;52787;51.084;5.816;2022-07-23T07:59:25;21.33;69.07
66019;HTU21D;52787;51.084;5.816;2022-07-23T08:01:51;21.35;68.49
66019;HTU21D;52787;51.084;5.816;2022-07-23T08:04:17;21.44;68.30
66019;HTU21D;52787;51.084;5.816;2022-07-23T08:06:43;21.52;68.15
66019;HTU21D;52787;51.084;5.816;2022-07-23T08:09:09;21.64;68.07
66019;HTU21D;52787;51.084;5.816;2022-07-23T08:11:35;21.76;67.85
66019;HTU21D;52787;51.084;5.816;2022-07-23T08:14:01;21.81;67.60
66019;HTU21D;52787;51.084;5.816;2022-07-23T08:16:27;21.92;67.02
66019;HTU21D;52787;51.084;5.816;2022-07-23T08:18:53;22.01;66.47
66019;HTU21D;52787;51.084;5.816;2022-07-23T08:21:19;22.08;66.69
66019;HTU21D;52787;51.084;5.816;2022-07-23T08:23:45;22.19;66.88
66019;HTU21D;52787;51.084;5.816;2022-07-23T08:26:11;22.31;66.58
66019;HTU21D;52787;51.084;5.816;2022-07-23T08:28:37;22.37;66.34
66019;HTU21D;52787;51.084;5.816;2022-07-23T08:31:03;22.44;65.84
66019;HTU21D;52787;51.084;5.816;2022-07-23T08:33:31;22.52;64.58
66019;HTU21D;52787;51.084;5.816;2022-07-23T08:35:58;22.58;64.43
66019;HTU21D;52787;51.084;5.816;2022-07-23T08:38:24;22.68;64.37
66019;HTU21D;52787;51.084;5.816;2022-07-23T08:40:52;22.76;64.15
66019;HTU21D;52787;51.084;5.816;2022-07-23T08:43:22;22.79;63.98
66019;HTU21D;52787;51.084;5.816;2022-07-23T08:45:53;22.84;64.35
66019;HTU21D;52787;51.084;5.816;2022-07-23T08:48:25;22.87;63.45
66019;HTU21D;52787;51.084;5.816;2022-07-23T08:50:57;22.82;63.53
66019;HTU21D;52787;51.084;5.816;2022-07-23T08:53:26;22.82;62.27
66019;HTU21D;52787;51.084;5.816;2022-07-23T08:55:57;22.79;61.73
66019;HTU21D;52787;51.084;5.816;2022-07-23T08:58:27;22.81;62.21
66019;HTU21D;52787;51.084;5.816;2022-07-23T09:00:54;22.92;62.76
66019;HTU21D;52787;51.084;5.816;2022-07-23T09:03:24;23.03;62.49
66019;HTU21D;52787;51.084;5.816;2022-07-23T09:05:55;23.07;61.72
66019;HTU21D;52787;51.084;5.816;2022-07-23T09:08:25;23.13;60.90
66019;HTU21D;52787;51.084;5.816;2022-07-23T09:11:01;23.20;61.66
66019;HTU21D;52787;51.084;5.816;2022-07-23T09:13:40;23.21;59.70
66019;HTU21D;52787;51.084;5.816;2022-07-23T09:16:16;23.21;58.55
66019;HTU21D;52787;51.084;5.816;2022-07-23T09:24:07;23.42;57.35
66019;HTU21D;52787;51.084;5.816;2022-07-23T09:26:36;23.43;56.18
66019;HTU21D;52787;51.084;5.816;2022-07-23T09:29:19;23.47;55.57
66019;HTU21D;52787;51.084;5.816;2022-07-23T09:31:59;23.61;55.26
66019;HTU21D;52787;51.084;5.816;2022-07-23T09:34:36;23.69;55.29
66019;HTU21D;52787;51.084;5.816;2022-07-23T09:37:11;23.69;54.94
66019;HTU21D;52787;51.084;5.816;2022-07-23T09:39:42;23.73;54.01
66019;HTU21D;52787;51.084;5.816;2022-07-23T09:42:23;23.76;52.52
66019;HTU21D;52787;51.084;5.816;2022-07-23T09:44:55;23.80;53.10
66019;HTU21D;52787;51.084;5.816;2022-07-23T09:47:24;23.83;52.49
66019;HTU21D;52787;51.084;5.816;2022-07-23T09:50:07;23.90;55.03
66019;HTU21D;52787;51.084;5.816;2022-07-23T09:52:42;24.03;53.20
66019;HTU21D;52787;51.084;5.816;2022-07-23T09:55:10;24.13;53.42
66019;HTU21D;52787;51.084;5.816;2022-07-23T09:57:36;24.20;53.72
66019;HTU21D;52787;51.084;5.816;2022-07-23T10:00:05;24.34;52.69
66019;HTU21D;52787;51.084;5.816;2022-07-23T10:02:35;24.45;52.40
66019;HTU21D;52787;51.084;5.816;2022-07-23T10:05:02;24.53;52.00
66019;HTU21D;52787;51.084;5.816;2022-07-23T10:07:33;24.68;54.10
66019;HTU21D;52787;51.084;5.816;2022-07-23T10:10:01;24.85;53.29
66019;HTU21D;52787;51.084;5.816;2022-07-23T10:12:28;24.95;52.27
66019;HTU21D;52787;51.084;5.816;2022-07-23T10:15:13;25.03;51.24
66019;HTU21D;52787;51.084;5.816;2022-07-23T10:17:39;25.03;50.17
66019;HTU21D;52787;51.084;5.816;2022-07-23T10:20:05;25.02;51.14
66019;HTU21D;52787;51.084;5.816;2022-07-23T10:22:38;25.12;49.71
66019;HTU21D;52787;51.084;5.816;2022-07-23T10:34:29;25.52;49.87
66019;HTU21D;52787;51.084;5.816;2022-07-23T10:40:20;25.71;47.66
66019;HTU21D;52787;51.084;5.816;2022-07-23T10:42:49;25.77;47.79
66019;HTU21D;52787;51.084;5.816;2022-07-23T10:45:36;25.78;47.32
66019;HTU21D;52787;51.084;5.816;2022-07-23T10:48:17;25.76;46.56
66019;HTU21D;52787;51.084;5.816;2022-07-23T10:51:08;25.80;46.93
66019;HTU21D;52787;51.084;5.816;2022-07-23T10:59:19;26.23;47.04
66019;HTU21D;52787;51.084;5.816;2022-07-23T11:01:45;26.28;46.42
66019;HTU21D;52787;51.084;5.816;2022-07-23T11:04:11;26.35;45.99
66019;HTU21D;52787;51.084;5.816;2022-07-23T11:09:27;26.54;45.30
66019;HTU21D;52787;51.084;5.816;2022-07-23T11:15:03;26.64;45.16
66019;HTU21D;52787;51.084;5.816;2022-07-23T11:17:39;26.72;45.44
66019;HTU21D;52787;51.084;5.816;2022-07-23T11:25:33;27.01;43.67
66019;HTU21D;52787;51.084;5.816;2022-07-23T11:28:16;27.13;42.90
66019;HTU21D;52787;51.084;5.816;2022-07-23T11:30:45;27.21;43.68
66019;HTU21D;52787;51.084;5.816;2022-07-23T11:35:39;27.30;42.53
66019;HTU21D;52787;51.084;5.816;2022-07-23T11:38:15;27.34;41.10
66019;HTU21D;52787;51.084;5.816;2022-07-23T11:40:44;27.29;41.65
66019;HTU21D;52787;51.084;5.816;2022-07-23T11:43:15;27.32;42.13
66019;HTU21D;52787;51.084;5.816;2022-07-23T11:45:43;27.42;43.23
66019;HTU21D;52787;51.084;5.816;2022-07-23T11:48:22;27.53;43.67
66019;HTU21D;52787;51.084;5.816;2022-07-23T11:50:49;27.55;41.28
66019;HTU21D;52787;51.084;5.816;2022-07-23T11:53:33;27.58;41.14
66019;HTU21D;52787;51.084;5.816;2022-07-23T11:56:09;27.70;41.36
66019;HTU21D;52787;51.084;5.816;2022-07-23T11:58:37;27.85;40.64
66019;HTU21D;52787;51.084;5.816;2022-07-23T12:01:04;27.99;40.78
66019;HTU21D;52787;51.084;5.816;2022-07-23T12:03:30;28.10;40.41
66019;HTU21D;52787;51.084;5.816;2022-07-23T12:06:00;28.18;40.34
66019;HTU21D;52787;51.084;5.816;2022-07-23T12:08:26;28.25;40.02
66019;HTU21D;52787;51.084;5.816;2022-07-23T12:10:52;28.32;39.80
66019;HTU21D;52787;51.084;5.816;2022-07-23T12:13:19;28.39;39.78
66019;HTU21D;52787;51.084;5.816;2022-07-23T12:15:50;28.42;38.15
66019;HTU21D;52787;51.084;5.816;2022-07-23T12:18:23;28.40;37.64
66019;HTU21D;52787;51.084;5.816;2022-07-23T12:20:55;28.50;38.27
66019;HTU21D;52787;51.084;5.816;2022-07-23T12:23:25;28.58;38.61
66019;HTU21D;52787;51.084;5.816;2022-07-23T12:25:53;28.67;39.48
66019;HTU21D;52787;51.084;5.816;2022-07-23T12:28:30;28.73;38.70
66019;HTU21D;52787;51.084;5.816;2022-07-23T12:31:03;28.77;38.72
66019;HTU21D;52787;51.084;5.816;2022-07-23T12:33:38;28.86;38.45
66019;HTU21D;52787;51.084;5.816;2022-07-23T12:36:08;28.95;36.39
66019;HTU21D;52787;51.084;5.816;2022-07-23T12:38:48;29.01;36.88
66019;HTU21D;52787;51.084;5.816;2022-07-23T12:41:15;28.94;36.42
66019;HTU21D;52787;51.084;5.816;2022-07-23T12:43:44;28.91;37.69
66019;HTU21D;52787;51.084;5.816;2022-07-23T12:48:50;29.03;37.17
66019;HTU21D;52787;51.084;5.816;2022-07-23T12:53:52;29.18;37.83
66019;HTU21D;52787;51.084;5.816;2022-07-23T12:56:40;29.30;38.12
66019;HTU21D;52787;51.084;5.816;2022-07-23T12:59:09;29.36;37.30
66019;HTU21D;52787;51.084;5.816;2022-07-23T13:01:38;29.29;37.11
66019;HTU21D;52787;51.084;5.816;2022-07-23T13:04:13;29.28;37.35
66019;HTU21D;52787;51.084;5.816;2022-07-23T13:06:48;29.35;36.99
66019;HTU21D;52787;51.084;5.816;2022-07-23T13:09:22;29.36;35.85
66019;HTU21D;52787;51.084;5.816;2022-07-23T13:11:53;29.27;35.37
66019;HTU21D;52787;51.084;5.816;2022-07-23T13:14:21;29.11;35.89
66019;HTU21D;52787;51.084;5.816;2022-07-23T13:16:49;29.17;36.43
66019;HTU21D;52787;51.084;5.816;2022-07-23T13:19:16;29.31;36.19
66019;HTU21D;52787;51.084;5.816;2022-07-23T13:21:43;29.36;36.68
66019;HTU21D;52787;51.084;5.816;2022-07-23T13:24:10;29.31;35.94
66019;HTU21D;52787;51.084;5.816;2022-07-23T13:26:38;29.19;35.76
66019;HTU21D;52787;51.084;5.816;2022-07-23T13:29:05;29.24;36.11
66019;HTU21D;52787;51.084;5.816;2022-07-23T13:31:32;29.34;36.05
66019;HTU21D;52787;51.084;5.816;2022-07-23T13:33:58;29.49;36.25
66019;HTU21D;52787;51.084;5.816;2022-07-23T13:36:24;29.65;37.23
66019;HTU21D;52787;51.084;5.816;2022-07-23T13:38:50;29.78;35.66
66019;HTU21D;52787;51.084;5.816;2022-07-23T13:41:17;29.65;35.21
66019;HTU21D;52787;51.084;5.816;2022-07-23T13:43:44;29.58;34.92
66019;HTU21D;52787;51.084;5.816;2022-07-23T13:46:10;29.60;36.85
66019;HTU21D;52787;51.084;5.816;2022-07-23T13:48:36;29.74;35.13
66019;HTU21D;52787;51.084;5.816;2022-07-23T13:51:02;29.78;35.32
66019;HTU21D;52787;51.084;5.816;2022-07-23T13:53:28;29.88;35.82
66019;HTU21D;52787;51.084;5.816;2022-07-23T13:55:53;29.96;35.24
66019;HTU21D;52787;51.084;5.816;2022-07-23T13:58:20;29.96;35.24
66019;HTU21D;52787;51.084;5.816;2022-07-23T14:00:52;30.04;34.47
66019;HTU21D;52787;51.084;5.816;2022-07-23T14:03:20;30.01;34.66
66019;HTU21D;52787;51.084;5.816;2022-07-23T14:05:51;30.08;34.69
66019;HTU21D;52787;51.084;5.816;2022-07-23T14:08:18;30.19;34.82
66019;HTU21D;52787;51.084;5.816;2022-07-23T14:10:43;30.35;35.73
66019;HTU21D;52787;51.084;5.816;2022-07-23T14:13:09;30.54;34.74
66019;HTU21D;52787;51.084;5.816;2022-07-23T14:15:35;30.53;33.73
66019;HTU21D;52787;51.084;5.816;2022-07-23T14:18:02;30.46;33.55
66019;HTU21D;52787;51.084;5.816;2022-07-23T14:20:28;30.39;33.28
66019;HTU21D;52787;51.084;5.816;2022-07-23T14:22:54;30.25;33.78
66019;HTU21D;52787;51.084;5.816;2022-07-23T14:25:21;30.31;35.61
66019;HTU21D;52787;51.084;5.816;2022-07-23T14:27:47;30.42;35.19
66019;HTU21D;52787;51.084;5.816;2022-07-23T14:30:13;30.51;34.86
66019;HTU21D;52787;51.084;5.816;2022-07-23T14:32:40;30.64;35.31
66019;HTU21D;52787;51.084;5.816;2022-07-23T14:35:06;30.71;34.25
66019;HTU21D;52787;51.084;5.816;2022-07-23T14:37:33;30.72;34.85
66019;HTU21D;52787;51.084;5.816;2022-07-23T14:39:59;30.77;34.30
66019;HTU21D;52787;51.084;5.816;2022-07-23T14:42:25;30.71;34.88
66019;HTU21D;52787;51.084;5.816;2022-07-23T14:44:51;30.74;34.79
66019;HTU21D;52787;51.084;5.816;2022-07-23T14:47:17;30.76;34.35
66019;HTU21D;52787;51.084;5.816;2022-07-23T14:49:43;30.75;33.60
66019;HTU21D;52787;51.084;5.816;2022-07-23T14:52:08;30.59;32.78
66019;HTU21D;52787;51.084;5.816;2022-07-23T14:54:34;30.48;32.51
66019;HTU21D;52787;51.084;5.816;2022-07-23T14:57:02;30.33;32.83
66019;HTU21D;52787;51.084;5.816;2022-07-23T14:59:29;30.26;33.51
66019;HTU21D;52787;51.084;5.816;2022-07-23T15:01:56;30.41;34.36
66019;HTU21D;52787;51.084;5.816;2022-07-23T15:04:22;30.39;34.19
66019;HTU21D;52787;51.084;5.816;2022-07-23T15:06:48;30.26;34.45
66019;HTU21D;52787;51.084;5.816;2022-07-23T15:09:14;30.18;35.05
66019;HTU21D;52787;51.084;5.816;2022-07-23T15:11:40;30.13;34.60
66019;HTU21D;52787;51.084;5.816;2022-07-23T15:14:08;30.10;34.22
66019;HTU21D;52787;51.084;5.816;2022-07-23T15:16:34;30.02;34.18
66019;HTU21D;52787;51.084;5.816;2022-07-23T15:19:02;29.93;34.83
66019;HTU21D;52787;51.084;5.816;2022-07-23T15:21:29;29.81;35.66
66019;HTU21D;52787;51.084;5.816;2022-07-23T15:23:56;29.66;36.20
66019;HTU21D;52787;51.084;5.816;2022-07-23T15:26:29;29.54;36.91
66019;HTU21D;52787;51.084;5.816;2022-07-23T15:28:56;29.45;37.05
66019;HTU21D;52787;51.084;5.816;2022-07-23T15:31:25;29.35;37.85
66019;HTU21D;52787;51.084;5.816;2022-07-23T15:33:51;29.26;37.88
66019;HTU21D;52787;51.084;5.816;2022-07-23T15:36:20;29.16;37.98
66019;HTU21D;52787;51.084;5.816;2022-07-23T15:38:46;29.09;38.04
66019;HTU21D;52787;51.084;5.816;2022-07-23T15:41:13;29.02;38.16
66019;HTU21D;52787;51.084;5.816;2022-07-23T15:43:39;28.95;38.75
66019;HTU21D;52787;51.084;5.816;2022-07-23T15:46:05;28.86;39.05
66019;HTU21D;52787;51.084;5.816;2022-07-23T15:48:35;28.78;39.56
66019;HTU21D;52787;51.084;5.816;2022-07-23T15:51:02;28.76;39.16
66019;HTU21D;52787;51.084;5.816;2022-07-23T15:53:29;28.75;39.46
66019;HTU21D;52787;51.084;5.816;2022-07-23T15:55:55;28.74;39.51
66019;HTU21D;52787;51.084;5.816;2022-07-23T15:58:21;28.71;39.36
66019;HTU21D;52787;51.084;5.816;2022-07-23T16:00:46;28.68;39.35
66019;HTU21D;52787;51.084;5.816;2022-07-23T16:03:13;28.72;38.67